sensor_id;sensor_type;location;lat;lon;timestamp;P1;durP1;ratioP1;P2;durP2;ratioP2
24547;SDS011;12713;51.624;4.924;2023-04-12T00:01:35;4.05;;;1.80;;
24547;SDS011;12713;51.624;4.924;2023-04-12T00:04:01;4.93;;;1.80;;
24547;SDS011;12713;51.624;4.924;2023-04-12T00:06:32;4.85;;;1.77;;
24547;SDS011;12713;51.624;4.924;2023-04-12T00:08:59;8.07;;;1.88;;
24547;SDS011;12713;51.624;4.924;2023-04-12T00:11:25;5.72;;;2.05;;
24547;SDS011;12713;51.624;4.924;2023-04-12T00:13:55;4.57;;;2.03;;
24547;SDS011;12713;51.624;4.924;2023-04-12T00:16:21;3.92;;;1.50;;
24547;SDS011;12713;51.624;4.924;2023-04-12T00:18:48;3.67;;;1.40;;
24547;SDS011;12713;51.624;4.924;2023-04-12T00:21:15;8.63;;;1.60;;
24547;SDS011;12713;51.624;4.924;2023-04-12T00:23:44;4.97;;;1.85;;
24547;SDS011;12713;51.624;4.924;2023-04-12T00:26:10;4.90;;;1.63;;
24547;SDS011;12713;51.624;4.924;2023-04-12T00:28:36;8.55;;;2.10;;
24547;SDS011;12713;51.624;4.924;2023-04-12T00:31:02;7.22;;;1.70;;
24547;SDS011;12713;51.624;4.924;2023-04-12T00:33:28;3.42;;;2.08;;
24547;SDS011;12713;51.624;4.924;2023-04-12T00:35:55;3.75;;;1.95;;
24547;SDS011;12713;51.624;4.924;2023-04-12T00:38:21;5.78;;;1.75;;
24547;SDS011;12713;51.624;4.924;2023-04-12T00:40:47;4.20;;;1.90;;
24547;SDS011;12713;51.624;4.924;2023-04-12T00:43:13;3.00;;;1.65;;
24547;SDS011;12713;51.624;4.924;2023-04-12T00:45:42;3.97;;;1.52;;
24547;SDS011;12713;51.624;4.924;2023-04-12T00:48:08;7.20;;;2.05;;
24547;SDS011;12713;51.624;4.924;2023-04-12T00:50:34;3.20;;;1.75;;
24547;SDS011;12713;51.624;4.924;2023-04-12T00:53:01;4.05;;;1.63;;
24547;SDS011;12713;51.624;4.924;2023-04-12T00:55:28;3.15;;;1.45;;
24547;SDS011;12713;51.624;4.924;2023-04-12T00:57:56;6.85;;;1.77;;
24547;SDS011;12713;51.624;4.924;2023-04-12T01:00:23;7.93;;;2.17;;
24547;SDS011;12713;51.624;4.924;2023-04-12T01:02:49;4.82;;;1.77;;
24547;SDS011;12713;51.624;4.924;2023-04-12T01:05:17;6.03;;;1.90;;
24547;SDS011;12713;51.624;4.924;2023-04-12T01:07:53;5.43;;;2.10;;
24547;SDS011;12713;51.624;4.924;2023-04-12T01:10:26;7.25;;;2.00;;
24547;SDS011;12713;51.624;4.924;2023-04-12T01:16:10;6.15;;;2.05;;
24547;SDS011;12713;51.624;4.924;2023-04-12T01:18:35;3.00;;;2.00;;
24547;SDS011;12713;51.624;4.924;2023-04-12T01:21:07;4.93;;;1.90;;
24547;SDS011;12713;51.624;4.924;2023-04-12T01:28:28;6.38;;;1.90;;
24547;SDS011;12713;51.624;4.924;2023-04-12T01:30:57;6.97;;;1.80;;
24547;SDS011;12713;51.624;4.924;2023-04-12T01:33:25;6.70;;;1.75;;
24547;SDS011;12713;51.624;4.924;2023-04-12T01:35:55;6.53;;;1.92;;
24547;SDS011;12713;51.624;4.924;2023-04-12T01:38:22;6.60;;;1.88;;
24547;SDS011;12713;51.624;4.924;2023-04-12T01:40:48;6.50;;;1.90;;
24547;SDS011;12713;51.624;4.924;2023-04-12T01:43:14;5.35;;;1.85;;
24547;SDS011;12713;51.624;4.924;2023-04-12T01:45:41;4.10;;;1.75;;
24547;SDS011;12713;51.624;4.924;2023-04-12T01:48:08;5.32;;;1.80;;
24547;SDS011;12713;51.624;4.924;2023-04-12T01:50:38;5.72;;;1.80;;
24547;SDS011;12713;51.624;4.924;2023-04-12T01:53:13;4.03;;;1.88;;
24547;SDS011;12713;51.624;4.924;2023-04-12T01:55:43;5.57;;;1.83;;
24547;SDS011;12713;51.624;4.924;2023-04-12T01:58:13;3.08;;;1.70;;
24547;SDS011;12713;51.624;4.924;2023-04-12T02:00:42;5.03;;;1.80;;
24547;SDS011;12713;51.624;4.924;2023-04-12T02:03:09;4.00;;;1.60;;
24547;SDS011;12713;51.624;4.924;2023-04-12T02:05:36;5.50;;;2.22;;
24547;SDS011;12713;51.624;4.924;2023-04-12T02:08:02;7.07;;;2.00;;
24547;SDS011;12713;51.624;4.924;2023-04-12T02:10:29;8.43;;;2.10;;
24547;SDS011;12713;51.624;4.924;2023-04-12T02:12:59;7.78;;;2.35;;
24547;SDS011;12713;51.624;4.924;2023-04-12T02:15:26;7.70;;;2.90;;
24547;SDS011;12713;51.624;4.924;2023-04-12T02:17:52;5.30;;;1.92;;
24547;SDS011;12713;51.624;4.924;2023-04-12T02:20:21;7.53;;;2.47;;
24547;SDS011;12713;51.624;4.924;2023-04-12T02:22:48;4.53;;;1.85;;
24547;SDS011;12713;51.624;4.924;2023-04-12T02:25:14;4.10;;;2.70;;
24547;SDS011;12713;51.624;4.924;2023-04-12T02:27:44;11.15;;;2.28;;
24547;SDS011;12713;51.624;4.924;2023-04-12T02:30:12;6.28;;;2.28;;
24547;SDS011;12713;51.624;4.924;2023-04-12T02:32:39;6.30;;;2.13;;
24547;SDS011;12713;51.624;4.924;2023-04-12T02:35:08;4.82;;;1.88;;
24547;SDS011;12713;51.624;4.924;2023-04-12T02:37:35;8.20;;;2.25;;
24547;SDS011;12713;51.624;4.924;2023-04-12T02:40:01;6.88;;;1.90;;
24547;SDS011;12713;51.624;4.924;2023-04-12T02:42:30;6.18;;;2.15;;
24547;SDS011;12713;51.624;4.924;2023-04-12T02:44:56;8.50;;;2.42;;
24547;SDS011;12713;51.624;4.924;2023-04-12T02:47:22;7.72;;;2.38;;
24547;SDS011;12713;51.624;4.924;2023-04-12T02:49:53;8.30;;;2.40;;
24547;SDS011;12713;51.624;4.924;2023-04-12T02:52:19;6.78;;;2.10;;
24547;SDS011;12713;51.624;4.924;2023-04-12T02:54:45;6.30;;;2.10;;
24547;SDS011;12713;51.624;4.924;2023-04-12T02:57:11;6.13;;;2.30;;
24547;SDS011;12713;51.624;4.924;2023-04-12T02:59:38;4.25;;;2.10;;
24547;SDS011;12713;51.624;4.924;2023-04-12T03:02:04;5.88;;;2.42;;
24547;SDS011;12713;51.624;4.924;2023-04-12T03:04:30;3.38;;;2.00;;
24547;SDS011;12713;51.624;4.924;2023-04-12T03:06:56;5.72;;;2.10;;
24547;SDS011;12713;51.624;4.924;2023-04-12T03:09:22;6.40;;;2.60;;
24547;SDS011;12713;51.624;4.924;2023-04-12T03:11:49;4.43;;;2.10;;
24547;SDS011;12713;51.624;4.924;2023-04-12T03:14:15;4.68;;;2.30;;
24547;SDS011;12713;51.624;4.924;2023-04-12T03:16:41;5.65;;;2.30;;
24547;SDS011;12713;51.624;4.924;2023-04-12T03:19:08;4.47;;;2.00;;
24547;SDS011;12713;51.624;4.924;2023-04-12T03:21:34;4.95;;;2.03;;
24547;SDS011;12713;51.624;4.924;2023-04-12T03:24:00;5.47;;;2.20;;
24547;SDS011;12713;51.624;4.924;2023-04-12T03:26:28;7.60;;;2.08;;
24547;SDS011;12713;51.624;4.924;2023-04-12T03:28:57;6.28;;;2.20;;
24547;SDS011;12713;51.624;4.924;2023-04-12T03:31:23;5.50;;;2.00;;
24547;SDS011;12713;51.624;4.924;2023-04-12T03:33:51;4.80;;;2.00;;
24547;SDS011;12713;51.624;4.924;2023-04-12T03:36:17;4.63;;;1.95;;
24547;SDS011;12713;51.624;4.924;2023-04-12T03:38:45;6.32;;;1.70;;
24547;SDS011;12713;51.624;4.924;2023-04-12T03:41:11;3.45;;;1.40;;
24547;SDS011;12713;51.624;4.924;2023-04-12T03:43:37;3.75;;;1.63;;
24547;SDS011;12713;51.624;4.924;2023-04-12T03:46:03;4.25;;;1.60;;
24547;SDS011;12713;51.624;4.924;2023-04-12T03:48:30;4.78;;;1.50;;
24547;SDS011;12713;51.624;4.924;2023-04-12T03:50:56;3.80;;;1.50;;
24547;SDS011;12713;51.624;4.924;2023-04-12T03:53:26;4.68;;;1.60;;
24547;SDS011;12713;51.624;4.924;2023-04-12T03:55:54;7.20;;;2.33;;
24547;SDS011;12713;51.624;4.924;2023-04-12T03:58:20;1.67;;;1.40;;
24547;SDS011;12713;51.624;4.924;2023-04-12T04:00:46;3.50;;;1.90;;
24547;SDS011;12713;51.624;4.924;2023-04-12T04:03:13;2.88;;;2.00;;
24547;SDS011;12713;51.624;4.924;2023-04-12T04:05:39;6.40;;;1.65;;
24547;SDS011;12713;51.624;4.924;2023-04-12T04:08:05;5.22;;;1.42;;
24547;SDS011;12713;51.624;4.924;2023-04-12T04:10:32;4.78;;;1.58;;
24547;SDS011;12713;51.624;4.924;2023-04-12T04:12:58;8.35;;;2.25;;
24547;SDS011;12713;51.624;4.924;2023-04-12T04:15:24;6.50;;;2.03;;
24547;SDS011;12713;51.624;4.924;2023-04-12T04:17:51;6.63;;;3.45;;
24547;SDS011;12713;51.624;4.924;2023-04-12T04:20:17;9.52;;;4.43;;
24547;SDS011;12713;51.624;4.924;2023-04-12T04:22:43;10.02;;;4.72;;
24547;SDS011;12713;51.624;4.924;2023-04-12T04:25:12;5.40;;;3.30;;
24547;SDS011;12713;51.624;4.924;2023-04-12T04:27:41;3.83;;;2.10;;
24547;SDS011;12713;51.624;4.924;2023-04-12T04:30:09;7.28;;;4.05;;
24547;SDS011;12713;51.624;4.924;2023-04-12T04:32:36;8.60;;;4.20;;
24547;SDS011;12713;51.624;4.924;2023-04-12T04:35:02;8.93;;;4.28;;
24547;SDS011;12713;51.624;4.924;2023-04-12T04:37:28;3.95;;;2.53;;
24547;SDS011;12713;51.624;4.924;2023-04-12T04:39:54;6.57;;;2.50;;
24547;SDS011;12713;51.624;4.924;2023-04-12T04:42:21;4.57;;;2.80;;
24547;SDS011;12713;51.624;4.924;2023-04-12T04:44:48;7.85;;;3.60;;
24547;SDS011;12713;51.624;4.924;2023-04-12T04:47:24;6.28;;;3.72;;
24547;SDS011;12713;51.624;4.924;2023-04-12T04:49:54;5.85;;;3.83;;
24547;SDS011;12713;51.624;4.924;2023-04-12T04:52:22;5.25;;;3.10;;
24547;SDS011;12713;51.624;4.924;2023-04-12T04:54:48;5.43;;;3.25;;
24547;SDS011;12713;51.624;4.924;2023-04-12T04:57:14;8.13;;;4.72;;
24547;SDS011;12713;51.624;4.924;2023-04-12T04:59:40;4.70;;;3.42;;
24547;SDS011;12713;51.624;4.924;2023-04-12T05:02:06;7.88;;;4.53;;
24547;SDS011;12713;51.624;4.924;2023-04-12T05:04:32;7.78;;;4.38;;
24547;SDS011;12713;51.624;4.924;2023-04-12T05:06:58;6.32;;;3.65;;
24547;SDS011;12713;51.624;4.924;2023-04-12T05:09:24;8.82;;;3.17;;
24547;SDS011;12713;51.624;4.924;2023-04-12T05:11:50;7.57;;;4.10;;
24547;SDS011;12713;51.624;4.924;2023-04-12T05:14:16;6.72;;;4.28;;
24547;SDS011;12713;51.624;4.924;2023-04-12T05:16:42;8.48;;;6.60;;
24547;SDS011;12713;51.624;4.924;2023-04-12T05:19:09;8.98;;;4.00;;
24547;SDS011;12713;51.624;4.924;2023-04-12T05:21:35;6.20;;;4.32;;
24547;SDS011;12713;51.624;4.924;2023-04-12T05:24:01;5.70;;;4.00;;
24547;SDS011;12713;51.624;4.924;2023-04-12T05:26:27;8.88;;;4.55;;
24547;SDS011;12713;51.624;4.924;2023-04-12T05:28:53;6.93;;;4.30;;
24547;SDS011;12713;51.624;4.924;2023-04-12T05:31:19;6.57;;;4.63;;
24547;SDS011;12713;51.624;4.924;2023-04-12T05:33:45;7.85;;;4.90;;
24547;SDS011;12713;51.624;4.924;2023-04-12T05:36:13;8.13;;;5.32;;
24547;SDS011;12713;51.624;4.924;2023-04-12T05:38:39;6.90;;;5.32;;
24547;SDS011;12713;51.624;4.924;2023-04-12T05:41:05;8.43;;;4.93;;
24547;SDS011;12713;51.624;4.924;2023-04-12T05:43:31;7.50;;;4.90;;
24547;SDS011;12713;51.624;4.924;2023-04-12T05:45:57;7.05;;;5.32;;
24547;SDS011;12713;51.624;4.924;2023-04-12T05:48:23;8.85;;;4.93;;
24547;SDS011;12713;51.624;4.924;2023-04-12T05:50:50;8.10;;;4.53;;
24547;SDS011;12713;51.624;4.924;2023-04-12T05:53:16;6.18;;;4.53;;
24547;SDS011;12713;51.624;4.924;2023-04-12T05:55:42;7.47;;;5.00;;
24547;SDS011;12713;51.624;4.924;2023-04-12T05:58:08;6.80;;;4.10;;
24547;SDS011;12713;51.624;4.924;2023-04-12T06:00:35;6.20;;;4.03;;
24547;SDS011;12713;51.624;4.924;2023-04-12T06:03:01;7.22;;;3.28;;
24547;SDS011;12713;51.624;4.924;2023-04-12T06:05:28;11.07;;;4.28;;
24547;SDS011;12713;51.624;4.924;2023-04-12T06:07:54;9.25;;;4.60;;
24547;SDS011;12713;51.624;4.924;2023-04-12T06:10:20;8.55;;;4.72;;
24547;SDS011;12713;51.624;4.924;2023-04-12T06:12:46;9.35;;;4.93;;
24547;SDS011;12713;51.624;4.924;2023-04-12T06:15:12;9.32;;;4.93;;
24547;SDS011;12713;51.624;4.924;2023-04-12T06:17:38;11.05;;;6.03;;
24547;SDS011;12713;51.624;4.924;2023-04-12T06:20:05;10.55;;;5.05;;
24547;SDS011;12713;51.624;4.924;2023-04-12T06:22:34;9.15;;;5.35;;
24547;SDS011;12713;51.624;4.924;2023-04-12T06:25:00;8.00;;;5.20;;
24547;SDS011;12713;51.624;4.924;2023-04-12T06:27:26;13.50;;;5.05;;
24547;SDS011;12713;51.624;4.924;2023-04-12T06:29:52;13.05;;;5.25;;
24547;SDS011;12713;51.624;4.924;2023-04-12T06:32:18;13.73;;;5.80;;
24547;SDS011;12713;51.624;4.924;2023-04-12T06:34:44;9.63;;;5.60;;
24547;SDS011;12713;51.624;4.924;2023-04-12T06:37:10;12.13;;;4.80;;
24547;SDS011;12713;51.624;4.924;2023-04-12T06:39:36;10.00;;;5.20;;
24547;SDS011;12713;51.624;4.924;2023-04-12T06:45:08;9.50;;;4.85;;
24547;SDS011;12713;51.624;4.924;2023-04-12T06:47:35;11.70;;;5.57;;
24547;SDS011;12713;51.624;4.924;2023-04-12T06:50:01;7.40;;;5.18;;
24547;SDS011;12713;51.624;4.924;2023-04-12T06:52:27;9.40;;;5.25;;
24547;SDS011;12713;51.624;4.924;2023-04-12T06:54:54;8.75;;;4.95;;
24547;SDS011;12713;51.624;4.924;2023-04-12T06:57:20;15.57;;;5.82;;
24547;SDS011;12713;51.624;4.924;2023-04-12T06:59:46;11.88;;;5.47;;
24547;SDS011;12713;51.624;4.924;2023-04-12T07:02:12;14.18;;;5.53;;
24547;SDS011;12713;51.624;4.924;2023-04-12T07:04:38;16.55;;;5.63;;
24547;SDS011;12713;51.624;4.924;2023-04-12T07:07:05;10.85;;;4.78;;
24547;SDS011;12713;51.624;4.924;2023-04-12T07:09:31;14.05;;;5.47;;
24547;SDS011;12713;51.624;4.924;2023-04-12T07:11:57;12.88;;;5.30;;
24547;SDS011;12713;51.624;4.924;2023-04-12T07:14:23;13.10;;;5.68;;
24547;SDS011;12713;51.624;4.924;2023-04-12T07:16:49;11.63;;;5.30;;
24547;SDS011;12713;51.624;4.924;2023-04-12T07:19:15;10.65;;;5.65;;
24547;SDS011;12713;51.624;4.924;2023-04-12T07:21:41;14.43;;;5.82;;
24547;SDS011;12713;51.624;4.924;2023-04-12T07:24:13;13.63;;;5.97;;
24547;SDS011;12713;51.624;4.924;2023-04-12T07:26:40;15.95;;;5.75;;
24547;SDS011;12713;51.624;4.924;2023-04-12T07:29:07;12.32;;;5.80;;
24547;SDS011;12713;51.624;4.924;2023-04-12T07:31:33;12.13;;;6.70;;
24547;SDS011;12713;51.624;4.924;2023-04-12T07:33:59;15.85;;;6.95;;
24547;SDS011;12713;51.624;4.924;2023-04-12T07:36:25;10.10;;;6.20;;
24547;SDS011;12713;51.624;4.924;2023-04-12T07:38:51;16.00;;;7.13;;
24547;SDS011;12713;51.624;4.924;2023-04-12T07:41:20;12.13;;;5.55;;
24547;SDS011;12713;51.624;4.924;2023-04-12T07:43:46;13.50;;;5.65;;
24547;SDS011;12713;51.624;4.924;2023-04-12T07:46:12;9.50;;;5.38;;
24547;SDS011;12713;51.624;4.924;2023-04-12T07:48:38;11.35;;;5.95;;
24547;SDS011;12713;51.624;4.924;2023-04-12T07:51:04;13.23;;;6.53;;
24547;SDS011;12713;51.624;4.924;2023-04-12T07:53:30;14.63;;;6.70;;
24547;SDS011;12713;51.624;4.924;2023-04-12T07:55:56;16.90;;;6.60;;
24547;SDS011;12713;51.624;4.924;2023-04-12T07:58:23;13.38;;;6.35;;
24547;SDS011;12713;51.624;4.924;2023-04-12T08:00:49;15.40;;;6.97;;
24547;SDS011;12713;51.624;4.924;2023-04-12T08:03:16;17.63;;;7.15;;
24547;SDS011;12713;51.624;4.924;2023-04-12T08:05:43;14.65;;;6.43;;
24547;SDS011;12713;51.624;4.924;2023-04-12T08:08:09;14.77;;;6.50;;
24547;SDS011;12713;51.624;4.924;2023-04-12T08:10:39;9.10;;;5.55;;
24547;SDS011;12713;51.624;4.924;2023-04-12T08:13:05;14.02;;;5.78;;
24547;SDS011;12713;51.624;4.924;2023-04-12T08:15:31;14.75;;;6.13;;
24547;SDS011;12713;51.624;4.924;2023-04-12T08:17:57;14.95;;;6.10;;
24547;SDS011;12713;51.624;4.924;2023-04-12T08:20:23;19.75;;;5.82;;
24547;SDS011;12713;51.624;4.924;2023-04-12T08:22:49;19.33;;;5.63;;
24547;SDS011;12713;51.624;4.924;2023-04-12T08:25:16;16.85;;;7.88;;
24547;SDS011;12713;51.624;4.924;2023-04-12T08:27:43;21.33;;;6.00;;
24547;SDS011;12713;51.624;4.924;2023-04-12T08:30:10;14.30;;;5.55;;
24547;SDS011;12713;51.624;4.924;2023-04-12T08:32:36;20.55;;;5.93;;
24547;SDS011;12713;51.624;4.924;2023-04-12T08:35:03;18.58;;;6.00;;
24547;SDS011;12713;51.624;4.924;2023-04-12T08:37:29;18.15;;;5.40;;
24547;SDS011;12713;51.624;4.924;2023-04-12T08:39:55;15.60;;;5.20;;
24547;SDS011;12713;51.624;4.924;2023-04-12T08:42:21;15.30;;;4.95;;
24547;SDS011;12713;51.624;4.924;2023-04-12T08:44:47;21.58;;;5.35;;
24547;SDS011;12713;51.624;4.924;2023-04-12T08:47:15;18.45;;;5.18;;
24547;SDS011;12713;51.624;4.924;2023-04-12T08:49:41;23.17;;;5.47;;
24547;SDS011;12713;51.624;4.924;2023-04-12T08:52:08;19.20;;;5.10;;
24547;SDS011;12713;51.624;4.924;2023-04-12T08:54:35;25.13;;;5.57;;
24547;SDS011;12713;51.624;4.924;2023-04-12T08:57:05;15.73;;;5.03;;
24547;SDS011;12713;51.624;4.924;2023-04-12T08:59:32;17.25;;;5.47;;
24547;SDS011;12713;51.624;4.924;2023-04-12T09:02:01;21.67;;;5.55;;
24547;SDS011;12713;51.624;4.924;2023-04-12T09:04:27;21.58;;;5.18;;
24547;SDS011;12713;51.624;4.924;2023-04-12T09:06:53;23.67;;;5.97;;
24547;SDS011;12713;51.624;4.924;2023-04-12T09:09:39;20.15;;;5.28;;
24547;SDS011;12713;51.624;4.924;2023-04-12T09:12:06;22.88;;;6.57;;
24547;SDS011;12713;51.624;4.924;2023-04-12T09:14:32;22.67;;;5.53;;
24547;SDS011;12713;51.624;4.924;2023-04-12T09:16:58;49.45;;;5.55;;
24547;SDS011;12713;51.624;4.924;2023-04-12T09:19:31;19.15;;;5.25;;
24547;SDS011;12713;51.624;4.924;2023-04-12T09:21:57;19.55;;;4.63;;
24547;SDS011;12713;51.624;4.924;2023-04-12T09:24:23;21.52;;;4.53;;
24547;SDS011;12713;51.624;4.924;2023-04-12T09:27:05;13.60;;;4.22;;
24547;SDS011;12713;51.624;4.924;2023-04-12T09:29:33;20.98;;;4.70;;
24547;SDS011;12713;51.624;4.924;2023-04-12T09:32:03;22.20;;;4.65;;
24547;SDS011;12713;51.624;4.924;2023-04-12T09:34:30;15.48;;;4.35;;
24547;SDS011;12713;51.624;4.924;2023-04-12T09:36:56;20.67;;;3.80;;
24547;SDS011;12713;51.624;4.924;2023-04-12T09:39:29;26.88;;;5.53;;
24547;SDS011;12713;51.624;4.924;2023-04-12T09:44:28;17.73;;;5.05;;
24547;SDS011;12713;51.624;4.924;2023-04-12T09:46:54;18.75;;;3.40;;
24547;SDS011;12713;51.624;4.924;2023-04-12T09:49:34;17.85;;;3.30;;
24547;SDS011;12713;51.624;4.924;2023-04-12T09:52:01;22.20;;;4.05;;
24547;SDS011;12713;51.624;4.924;2023-04-12T09:54:27;19.77;;;5.10;;
24547;SDS011;12713;51.624;4.924;2023-04-12T09:56:57;17.13;;;3.05;;
24547;SDS011;12713;51.624;4.924;2023-04-12T09:59:24;14.05;;;3.20;;
24547;SDS011;12713;51.624;4.924;2023-04-12T10:01:52;17.92;;;3.80;;
24547;SDS011;12713;51.624;4.924;2023-04-12T10:04:18;16.52;;;2.92;;
24547;SDS011;12713;51.624;4.924;2023-04-12T10:06:45;13.00;;;2.75;;
24547;SDS011;12713;51.624;4.924;2023-04-12T10:09:11;13.18;;;2.80;;
24547;SDS011;12713;51.624;4.924;2023-04-12T10:11:38;14.52;;;2.70;;
24547;SDS011;12713;51.624;4.924;2023-04-12T10:14:05;12.55;;;2.97;;
24547;SDS011;12713;51.624;4.924;2023-04-12T10:16:35;12.55;;;3.17;;
24547;SDS011;12713;51.624;4.924;2023-04-12T10:19:02;11.80;;;3.55;;
24547;SDS011;12713;51.624;4.924;2023-04-12T10:21:28;11.30;;;3.38;;
24547;SDS011;12713;51.624;4.924;2023-04-12T10:23:56;19.77;;;3.08;;
24547;SDS011;12713;51.624;4.924;2023-04-12T10:26:22;16.90;;;3.40;;
24547;SDS011;12713;51.624;4.924;2023-04-12T10:31:33;13.52;;;2.72;;
24547;SDS011;12713;51.624;4.924;2023-04-12T10:34:02;11.82;;;2.90;;
24547;SDS011;12713;51.624;4.924;2023-04-12T10:39:41;15.45;;;3.25;;
24547;SDS011;12713;51.624;4.924;2023-04-12T10:42:26;13.15;;;2.97;;
24547;SDS011;12713;51.624;4.924;2023-04-12T10:44:53;17.70;;;3.13;;
24547;SDS011;12713;51.624;4.924;2023-04-12T10:55:45;21.88;;;3.65;;
24547;SDS011;12713;51.624;4.924;2023-04-12T10:58:53;12.65;;;3.33;;
24547;SDS011;12713;51.624;4.924;2023-04-12T11:03:28;13.50;;;3.28;;
24547;SDS011;12713;51.624;4.924;2023-04-12T11:06:03;22.60;;;2.90;;
24547;SDS011;12713;51.624;4.924;2023-04-12T11:08:32;11.82;;;2.67;;
24547;SDS011;12713;51.624;4.924;2023-04-12T11:11:16;15.80;;;2.83;;
24547;SDS011;12713;51.624;4.924;2023-04-12T11:13:42;17.80;;;3.38;;
24547;SDS011;12713;51.624;4.924;2023-04-12T11:16:09;15.70;;;2.95;;
24547;SDS011;12713;51.624;4.924;2023-04-12T11:18:38;13.18;;;3.15;;
24547;SDS011;12713;51.624;4.924;2023-04-12T11:21:04;16.77;;;3.20;;
24547;SDS011;12713;51.624;4.924;2023-04-12T11:23:31;17.17;;;2.58;;
24547;SDS011;12713;51.624;4.924;2023-04-12T11:25:57;10.07;;;2.60;;
24547;SDS011;12713;51.624;4.924;2023-04-12T11:28:23;16.05;;;2.70;;
24547;SDS011;12713;51.624;4.924;2023-04-12T11:30:53;14.15;;;2.67;;
24547;SDS011;12713;51.624;4.924;2023-04-12T11:33:38;11.77;;;2.97;;
24547;SDS011;12713;51.624;4.924;2023-04-12T11:36:05;13.40;;;2.55;;
24547;SDS011;12713;51.624;4.924;2023-04-12T11:38:32;8.90;;;2.45;;
24547;SDS011;12713;51.624;4.924;2023-04-12T11:40:59;12.15;;;2.67;;
24547;SDS011;12713;51.624;4.924;2023-04-12T11:43:25;12.95;;;2.88;;
24547;SDS011;12713;51.624;4.924;2023-04-12T11:45:58;12.82;;;3.17;;
24547;SDS011;12713;51.624;4.924;2023-04-12T11:48:25;10.27;;;2.78;;
24547;SDS011;12713;51.624;4.924;2023-04-12T11:50:51;15.50;;;2.97;;
24547;SDS011;12713;51.624;4.924;2023-04-12T11:53:17;11.32;;;2.60;;
24547;SDS011;12713;51.624;4.924;2023-04-12T11:55:52;12.20;;;2.10;;
24547;SDS011;12713;51.624;4.924;2023-04-12T11:58:22;19.70;;;3.63;;
24547;SDS011;12713;51.624;4.924;2023-04-12T12:00:48;11.48;;;2.45;;
24547;SDS011;12713;51.624;4.924;2023-04-12T12:03:15;13.75;;;3.60;;
24547;SDS011;12713;51.624;4.924;2023-04-12T12:05:42;18.50;;;2.75;;
24547;SDS011;12713;51.624;4.924;2023-04-12T12:08:09;11.45;;;2.90;;
24547;SDS011;12713;51.624;4.924;2023-04-12T12:10:36;9.52;;;2.30;;
24547;SDS011;12713;51.624;4.924;2023-04-12T12:13:02;13.05;;;2.97;;
24547;SDS011;12713;51.624;4.924;2023-04-12T12:15:29;11.52;;;3.38;;
24547;SDS011;12713;51.624;4.924;2023-04-12T12:17:55;18.17;;;3.17;;
24547;SDS011;12713;51.624;4.924;2023-04-12T12:20:21;12.85;;;2.80;;
24547;SDS011;12713;51.624;4.924;2023-04-12T12:22:51;15.48;;;2.95;;
24547;SDS011;12713;51.624;4.924;2023-04-12T12:25:17;7.00;;;2.45;;
24547;SDS011;12713;51.624;4.924;2023-04-12T12:27:44;12.93;;;2.28;;
24547;SDS011;12713;51.624;4.924;2023-04-12T12:30:17;8.90;;;2.15;;
24547;SDS011;12713;51.624;4.924;2023-04-12T12:32:44;11.40;;;2.83;;
24547;SDS011;12713;51.624;4.924;2023-04-12T12:35:11;7.55;;;1.90;;
24547;SDS011;12713;51.624;4.924;2023-04-12T12:37:46;9.13;;;2.13;;
24547;SDS011;12713;51.624;4.924;2023-04-12T12:40:13;8.80;;;1.75;;
24547;SDS011;12713;51.624;4.924;2023-04-12T12:42:47;12.85;;;2.17;;
24547;SDS011;12713;51.624;4.924;2023-04-12T12:45:14;7.68;;;1.73;;
24547;SDS011;12713;51.624;4.924;2023-04-12T12:47:47;7.50;;;1.55;;
24547;SDS011;12713;51.624;4.924;2023-04-12T12:52:41;10.30;;;2.38;;
24547;SDS011;12713;51.624;4.924;2023-04-12T12:55:08;9.65;;;2.40;;
24547;SDS011;12713;51.624;4.924;2023-04-12T12:57:34;5.10;;;1.35;;
24547;SDS011;12713;51.624;4.924;2023-04-12T13:00:00;4.35;;;1.40;;
24547;SDS011;12713;51.624;4.924;2023-04-12T13:02:28;6.10;;;1.23;;
24547;SDS011;12713;51.624;4.924;2023-04-12T13:04:54;8.25;;;1.27;;
24547;SDS011;12713;51.624;4.924;2023-04-12T13:07:21;6.43;;;1.30;;
24547;SDS011;12713;51.624;4.924;2023-04-12T13:09:47;4.80;;;1.40;;
24547;SDS011;12713;51.624;4.924;2023-04-12T13:12:13;5.65;;;1.67;;
24547;SDS011;12713;51.624;4.924;2023-04-12T13:14:40;7.55;;;1.35;;
24547;SDS011;12713;51.624;4.924;2023-04-12T13:17:06;7.72;;;1.50;;
24547;SDS011;12713;51.624;4.924;2023-04-12T13:19:32;5.28;;;1.33;;
24547;SDS011;12713;51.624;4.924;2023-04-12T13:21:58;4.60;;;1.15;;
24547;SDS011;12713;51.624;4.924;2023-04-12T13:24:24;2.70;;;0.95;;
24547;SDS011;12713;51.624;4.924;2023-04-12T13:26:50;5.70;;;1.20;;
24547;SDS011;12713;51.624;4.924;2023-04-12T13:29:20;9.40;;;1.75;;
24547;SDS011;12713;51.624;4.924;2023-04-12T13:31:46;6.68;;;1.30;;
24547;SDS011;12713;51.624;4.924;2023-04-12T13:34:12;5.20;;;1.65;;
24547;SDS011;12713;51.624;4.924;2023-04-12T13:36:38;5.15;;;1.60;;
24547;SDS011;12713;51.624;4.924;2023-04-12T13:39:04;3.80;;;1.05;;
24547;SDS011;12713;51.624;4.924;2023-04-12T13:41:31;5.10;;;1.05;;
24547;SDS011;12713;51.624;4.924;2023-04-12T13:43:58;2.75;;;1.20;;
24547;SDS011;12713;51.624;4.924;2023-04-12T13:46:24;6.80;;;1.17;;
24547;SDS011;12713;51.624;4.924;2023-04-12T13:48:50;6.35;;;1.63;;
24547;SDS011;12713;51.624;4.924;2023-04-12T13:51:16;8.05;;;1.35;;
24547;SDS011;12713;51.624;4.924;2023-04-12T13:53:43;4.30;;;1.20;;
24547;SDS011;12713;51.624;4.924;2023-04-12T13:56:09;5.28;;;1.25;;
24547;SDS011;12713;51.624;4.924;2023-04-12T13:58:36;4.20;;;1.42;;
24547;SDS011;12713;51.624;4.924;2023-04-12T14:01:05;3.72;;;1.17;;
24547;SDS011;12713;51.624;4.924;2023-04-12T14:03:31;3.15;;;0.93;;
24547;SDS011;12713;51.624;4.924;2023-04-12T14:05:57;5.00;;;2.80;;
24547;SDS011;12713;51.624;4.924;2023-04-12T14:08:25;3.42;;;1.40;;
24547;SDS011;12713;51.624;4.924;2023-04-12T14:10:51;3.88;;;1.15;;
24547;SDS011;12713;51.624;4.924;2023-04-12T14:13:21;4.05;;;1.83;;
24547;SDS011;12713;51.624;4.924;2023-04-12T14:15:48;5.45;;;2.55;;
24547;SDS011;12713;51.624;4.924;2023-04-12T14:18:15;4.18;;;1.50;;
24547;SDS011;12713;51.624;4.924;2023-04-12T14:20:41;5.70;;;1.45;;
24547;SDS011;12713;51.624;4.924;2023-04-12T14:23:09;4.15;;;1.00;;
24547;SDS011;12713;51.624;4.924;2023-04-12T14:25:37;2.63;;;0.90;;
24547;SDS011;12713;51.624;4.924;2023-04-12T14:28:04;9.27;;;1.08;;
24547;SDS011;12713;51.624;4.924;2023-04-12T14:30:31;1.42;;;0.80;;
24547;SDS011;12713;51.624;4.924;2023-04-12T14:32:57;2.33;;;0.88;;
24547;SDS011;12713;51.624;4.924;2023-04-12T14:35:23;4.93;;;0.95;;
24547;SDS011;12713;51.624;4.924;2023-04-12T14:37:49;6.38;;;1.10;;
24547;SDS011;12713;51.624;4.924;2023-04-12T14:40:15;3.20;;;1.08;;
24547;SDS011;12713;51.624;4.924;2023-04-12T14:42:42;4.50;;;0.82;;
24547;SDS011;12713;51.624;4.924;2023-04-12T14:45:08;3.97;;;0.98;;
24547;SDS011;12713;51.624;4.924;2023-04-12T14:47:35;7.60;;;1.33;;
24547;SDS011;12713;51.624;4.924;2023-04-12T14:50:01;6.45;;;1.00;;
24547;SDS011;12713;51.624;4.924;2023-04-12T14:52:27;3.92;;;1.10;;
24547;SDS011;12713;51.624;4.924;2023-04-12T14:54:53;3.55;;;1.20;;
24547;SDS011;12713;51.624;4.924;2023-04-12T14:57:20;4.43;;;0.90;;
24547;SDS011;12713;51.624;4.924;2023-04-12T14:59:49;7.57;;;1.23;;
24547;SDS011;12713;51.624;4.924;2023-04-12T15:02:16;6.45;;;1.88;;
24547;SDS011;12713;51.624;4.924;2023-04-12T15:04:43;4.00;;;0.85;;
24547;SDS011;12713;51.624;4.924;2023-04-12T15:07:09;5.38;;;1.40;;
24547;SDS011;12713;51.624;4.924;2023-04-12T15:09:35;7.68;;;1.70;;
24547;SDS011;12713;51.624;4.924;2023-04-12T15:12:01;4.20;;;1.40;;
24547;SDS011;12713;51.624;4.924;2023-04-12T15:14:27;3.70;;;1.33;;
24547;SDS011;12713;51.624;4.924;2023-04-12T15:16:53;7.43;;;1.40;;